aviador You're here:

KIFA Decoded Metar

in _UNIDENTIFIED
Report Time2017-09-21 21:15:00
UTC Time2017-09-21 21:17:36
Flight Rules vfr VFR
Wind160° at 14 Gusting to 19 kt
W.Decomp.*RWY 13: 12.2 kt HW 6.8 kt RCW
W.Rank160° ranks 2
Current wind is above 160° avg. (9.4)
Visibility9999 m
Phenomena:N/A
Clouds:Scattered 080 Hf
Expected CloudBase > 4,400 ft AGL from Temp-Dew spread
CeilingNone
Temp32°C (ISA +19)
Dew Point21°C (52% RH)
Heat Index34.9°C
AAT31.1°C
QNH1011 hPa
Density Alt3,730 ft
Elevation1,138 ft
Report Wrong Elevation
Raw Report
KIFA 212115Z AUTO 16014G19KT 10SM SCT080 32/21 A2985 RMK AO2
T03180213=

Extra information for KIFA:More info

Metar Taf Metar & Taf Last 4 Metars F.Rules Stats Wind Profile Meteogram Temp Stats Metar ALERT Operation Metar Decoded Social comments